sensor_id;sensor_type;location;lat;lon;timestamp;pressure;altitude;pressure_sealevel;temperature;humidity
50310;BME280;36207;51.850;21.698;2023-11-19T00:02:21;100493.75;;;0.94;84.01
50310;BME280;36207;51.850;21.698;2023-11-19T00:04:47;100488.73;;;0.93;84.16
50310;BME280;36207;51.850;21.698;2023-11-19T00:07:13;100490.61;;;0.94;84.22
50310;BME280;36207;51.850;21.698;2023-11-19T00:09:40;100489.54;;;0.94;84.34
50310;BME280;36207;51.850;21.698;2023-11-19T00:12:06;100478.08;;;0.95;84.12
50310;BME280;36207;51.850;21.698;2023-11-19T00:14:33;100474.48;;;0.97;84.21
50310;BME280;36207;51.850;21.698;2023-11-19T00:17:02;100475.98;;;0.98;84.06
50310;BME280;36207;51.850;21.698;2023-11-19T00:19:30;100478.10;;;1.00;84.20
50310;BME280;36207;51.850;21.698;2023-11-19T00:21:56;100479.77;;;1.01;83.93
50310;BME280;36207;51.850;21.698;2023-11-19T00:24:21;100483.69;;;1.03;84.06
50310;BME280;36207;51.850;21.698;2023-11-19T00:26:47;100480.47;;;1.03;84.24
50310;BME280;36207;51.850;21.698;2023-11-19T00:29:13;100478.83;;;1.04;84.09
50310;BME280;36207;51.850;21.698;2023-11-19T00:31:39;100477.28;;;1.06;84.13
50310;BME280;36207;51.850;21.698;2023-11-19T00:34:05;100476.87;;;1.07;84.20
50310;BME280;36207;51.850;21.698;2023-11-19T00:36:31;100478.08;;;1.07;84.08
50310;BME280;36207;51.850;21.698;2023-11-19T00:38:57;100482.87;;;1.09;84.11
50310;BME280;36207;51.850;21.698;2023-11-19T00:41:24;100482.19;;;1.12;84.19
50310;BME280;36207;51.850;21.698;2023-11-19T00:43:51;100483.42;;;1.17;84.13
50310;BME280;36207;51.850;21.698;2023-11-19T00:46:17;100483.67;;;1.21;84.15
50310;BME280;36207;51.850;21.698;2023-11-19T00:48:43;100494.77;;;1.25;84.47
50310;BME280;36207;51.850;21.698;2023-11-19T00:51:11;100490.67;;;1.28;84.39
50310;BME280;36207;51.850;21.698;2023-11-19T00:53:37;100487.04;;;1.32;84.39
50310;BME280;36207;51.850;21.698;2023-11-19T00:56:04;100483.48;;;1.36;84.50
50310;BME280;36207;51.850;21.698;2023-11-19T00:58:30;100480.45;;;1.39;84.39
50310;BME280;36207;51.850;21.698;2023-11-19T01:00:56;100471.77;;;1.40;84.25
50310;BME280;36207;51.850;21.698;2023-11-19T01:03:23;100463.27;;;1.39;84.24
50310;BME280;36207;51.850;21.698;2023-11-19T01:05:49;100454.00;;;1.36;84.19
50310;BME280;36207;51.850;21.698;2023-11-19T01:08:15;100450.51;;;1.36;84.23
50310;BME280;36207;51.850;21.698;2023-11-19T01:10:42;100453.77;;;1.37;84.21
50310;BME280;36207;51.850;21.698;2023-11-19T01:13:08;100447.89;;;1.38;84.21
50310;BME280;36207;51.850;21.698;2023-11-19T01:15:34;100446.90;;;1.40;84.31
50310;BME280;36207;51.850;21.698;2023-11-19T01:18:00;100443.34;;;1.40;84.26
50310;BME280;36207;51.850;21.698;2023-11-19T01:20:28;100439.63;;;1.41;84.20
50310;BME280;36207;51.850;21.698;2023-11-19T01:22:54;100437.85;;;1.43;84.30
50310;BME280;36207;51.850;21.698;2023-11-19T01:25:20;100443.11;;;1.46;84.53
50310;BME280;36207;51.850;21.698;2023-11-19T01:27:46;100442.67;;;1.47;84.41
50310;BME280;36207;51.850;21.698;2023-11-19T01:30:12;100437.17;;;1.48;84.27
50310;BME280;36207;51.850;21.698;2023-11-19T01:32:39;100439.02;;;1.49;84.29
50310;BME280;36207;51.850;21.698;2023-11-19T01:35:06;100434.57;;;1.47;84.08
50310;BME280;36207;51.850;21.698;2023-11-19T01:37:34;100426.70;;;1.45;84.32
50310;BME280;36207;51.850;21.698;2023-11-19T01:40:03;100416.98;;;1.38;84.07
50310;BME280;36207;51.850;21.698;2023-11-19T01:42:36;100403.36;;;1.32;84.21
50310;BME280;36207;51.850;21.698;2023-11-19T01:45:03;100390.59;;;1.27;84.26
50310;BME280;36207;51.850;21.698;2023-11-19T01:47:32;100389.30;;;1.23;84.35
50310;BME280;36207;51.850;21.698;2023-11-19T01:49:59;100391.03;;;1.19;84.33
50310;BME280;36207;51.850;21.698;2023-11-19T01:52:25;100391.52;;;1.15;84.42
50310;BME280;36207;51.850;21.698;2023-11-19T01:54:53;100392.42;;;1.11;84.54
50310;BME280;36207;51.850;21.698;2023-11-19T01:57:22;100392.14;;;1.10;84.51
50310;BME280;36207;51.850;21.698;2023-11-19T01:59:50;100394.89;;;1.09;84.36
50310;BME280;36207;51.850;21.698;2023-11-19T02:02:17;100390.83;;;1.07;84.36
50310;BME280;36207;51.850;21.698;2023-11-19T02:04:50;100386.15;;;1.06;84.42
50310;BME280;36207;51.850;21.698;2023-11-19T02:07:18;100380.40;;;1.05;84.48
50310;BME280;36207;51.850;21.698;2023-11-19T02:09:45;100371.76;;;1.04;84.59
50310;BME280;36207;51.850;21.698;2023-11-19T02:12:11;100371.02;;;1.02;84.66
50310;BME280;36207;51.850;21.698;2023-11-19T02:14:40;100367.82;;;1.00;84.44
50310;BME280;36207;51.850;21.698;2023-11-19T02:17:07;100361.46;;;0.98;84.62
50310;BME280;36207;51.850;21.698;2023-11-19T02:19:34;100358.81;;;0.98;84.57
50310;BME280;36207;51.850;21.698;2023-11-19T02:21:59;100354.75;;;0.99;84.72
50310;BME280;36207;51.850;21.698;2023-11-19T02:24:28;100354.58;;;0.99;84.72
50310;BME280;36207;51.850;21.698;2023-11-19T02:27:08;100352.17;;;1.00;84.71
50310;BME280;36207;51.850;21.698;2023-11-19T02:29:36;100347.84;;;1.00;84.86
50310;BME280;36207;51.850;21.698;2023-11-19T02:32:03;100344.61;;;1.01;84.85
50310;BME280;36207;51.850;21.698;2023-11-19T02:34:29;100344.94;;;1.06;84.91
50310;BME280;36207;51.850;21.698;2023-11-19T02:36:55;100337.91;;;1.11;84.95
50310;BME280;36207;51.850;21.698;2023-11-19T02:39:21;100328.35;;;1.15;84.88
50310;BME280;36207;51.850;21.698;2023-11-19T02:41:48;100331.89;;;1.17;84.85
50310;BME280;36207;51.850;21.698;2023-11-19T02:44:17;100329.73;;;1.20;85.07
50310;BME280;36207;51.850;21.698;2023-11-19T02:46:43;100327.55;;;1.21;85.04
50310;BME280;36207;51.850;21.698;2023-11-19T02:49:09;100323.17;;;1.21;84.85
50310;BME280;36207;51.850;21.698;2023-11-19T02:51:35;100322.29;;;1.23;84.93
50310;BME280;36207;51.850;21.698;2023-11-19T02:54:02;100321.38;;;1.26;85.04
50310;BME280;36207;51.850;21.698;2023-11-19T02:56:29;100323.62;;;1.29;85.04
50310;BME280;36207;51.850;21.698;2023-11-19T02:59:00;100322.65;;;1.32;84.86
50310;BME280;36207;51.850;21.698;2023-11-19T03:01:33;100321.20;;;1.36;84.92
50310;BME280;36207;51.850;21.698;2023-11-19T03:04:02;100322.05;;;1.38;84.93
50310;BME280;36207;51.850;21.698;2023-11-19T03:06:28;100323.15;;;1.40;85.05
50310;BME280;36207;51.850;21.698;2023-11-19T03:08:55;100321.69;;;1.41;85.03
50310;BME280;36207;51.850;21.698;2023-11-19T03:11:21;100314.92;;;1.42;84.98
50310;BME280;36207;51.850;21.698;2023-11-19T03:13:47;100312.20;;;1.44;84.94
50310;BME280;36207;51.850;21.698;2023-11-19T03:16:13;100308.23;;;1.45;84.90
50310;BME280;36207;51.850;21.698;2023-11-19T03:18:39;100297.86;;;1.46;84.83
50310;BME280;36207;51.850;21.698;2023-11-19T03:21:06;100288.89;;;1.46;84.78
50310;BME280;36207;51.850;21.698;2023-11-19T03:23:34;100290.45;;;1.46;84.83
50310;BME280;36207;51.850;21.698;2023-11-19T03:26:00;100288.05;;;1.45;84.78
50310;BME280;36207;51.850;21.698;2023-11-19T03:28:29;100290.34;;;1.45;84.86
50310;BME280;36207;51.850;21.698;2023-11-19T03:30:56;100284.28;;;1.44;84.92
50310;BME280;36207;51.850;21.698;2023-11-19T03:33:22;100277.61;;;1.44;84.76
50310;BME280;36207;51.850;21.698;2023-11-19T03:35:48;100273.20;;;1.44;84.70
50310;BME280;36207;51.850;21.698;2023-11-19T03:38:14;100270.10;;;1.44;84.69
50310;BME280;36207;51.850;21.698;2023-11-19T03:40:40;100268.23;;;1.43;84.65
50310;BME280;36207;51.850;21.698;2023-11-19T03:43:06;100263.91;;;1.42;84.72
50310;BME280;36207;51.850;21.698;2023-11-19T03:45:32;100264.30;;;1.41;84.84
50310;BME280;36207;51.850;21.698;2023-11-19T03:47:58;100259.98;;;1.40;84.73
50310;BME280;36207;51.850;21.698;2023-11-19T03:50:25;100254.75;;;1.40;84.64
50310;BME280;36207;51.850;21.698;2023-11-19T03:52:50;100253.53;;;1.40;84.79
50310;BME280;36207;51.850;21.698;2023-11-19T03:55:16;100250.88;;;1.40;84.70
50310;BME280;36207;51.850;21.698;2023-11-19T03:57:42;100247.59;;;1.40;84.74
50310;BME280;36207;51.850;21.698;2023-11-19T04:00:09;100240.94;;;1.39;84.73
50310;BME280;36207;51.850;21.698;2023-11-19T04:02:36;100234.73;;;1.41;84.71
50310;BME280;36207;51.850;21.698;2023-11-19T04:05:03;100233.25;;;1.41;84.74
50310;BME280;36207;51.850;21.698;2023-11-19T04:07:31;100233.23;;;1.42;84.70
50310;BME280;36207;51.850;21.698;2023-11-19T04:09:57;100235.53;;;1.41;84.66
50310;BME280;36207;51.850;21.698;2023-11-19T04:12:23;100236.39;;;1.41;84.56
50310;BME280;36207;51.850;21.698;2023-11-19T04:14:49;100232.48;;;1.42;84.64
50310;BME280;36207;51.850;21.698;2023-11-19T04:17:15;100227.98;;;1.42;84.53
50310;BME280;36207;51.850;21.698;2023-11-19T04:19:41;100222.35;;;1.42;84.56
50310;BME280;36207;51.850;21.698;2023-11-19T04:22:07;100221.88;;;1.41;84.56
50310;BME280;36207;51.850;21.698;2023-11-19T04:24:35;100216.75;;;1.41;84.51
50310;BME280;36207;51.850;21.698;2023-11-19T04:27:01;100210.59;;;1.40;84.40
50310;BME280;36207;51.850;21.698;2023-11-19T04:29:27;100211.95;;;1.40;84.50
50310;BME280;36207;51.850;21.698;2023-11-19T04:31:53;100215.00;;;1.41;84.61
50310;BME280;36207;51.850;21.698;2023-11-19T04:34:19;100208.42;;;1.43;84.50
50310;BME280;36207;51.850;21.698;2023-11-19T04:36:45;100201.09;;;1.42;84.50
50310;BME280;36207;51.850;21.698;2023-11-19T04:39:11;100195.98;;;1.42;84.52
50310;BME280;36207;51.850;21.698;2023-11-19T04:41:51;100190.23;;;1.44;84.55
50310;BME280;36207;51.850;21.698;2023-11-19T04:44:21;100184.48;;;1.43;84.48
50310;BME280;36207;51.850;21.698;2023-11-19T04:46:47;100183.64;;;1.43;84.51
50310;BME280;36207;51.850;21.698;2023-11-19T04:49:13;100186.58;;;1.44;84.40
50310;BME280;36207;51.850;21.698;2023-11-19T04:51:41;100182.84;;;1.40;84.07
50310;BME280;36207;51.850;21.698;2023-11-19T04:54:08;100183.55;;;1.35;84.04
50310;BME280;36207;51.850;21.698;2023-11-19T04:56:37;100186.91;;;1.32;84.13
50310;BME280;36207;51.850;21.698;2023-11-19T04:59:04;100173.87;;;1.31;84.07
50310;BME280;36207;51.850;21.698;2023-11-19T05:01:35;100168.95;;;1.26;84.12
50310;BME280;36207;51.850;21.698;2023-11-19T05:04:01;100160.00;;;1.22;83.96
50310;BME280;36207;51.850;21.698;2023-11-19T05:06:31;100154.66;;;1.18;84.05
50310;BME280;36207;51.850;21.698;2023-11-19T05:09:02;100159.02;;;1.16;84.15
50310;BME280;36207;51.850;21.698;2023-11-19T05:11:30;100156.27;;;1.13;84.17
50310;BME280;36207;51.850;21.698;2023-11-19T05:13:58;100149.71;;;1.12;84.15
50310;BME280;36207;51.850;21.698;2023-11-19T05:16:24;100142.04;;;1.11;84.22
50310;BME280;36207;51.850;21.698;2023-11-19T05:18:50;100134.40;;;1.05;84.16
50310;BME280;36207;51.850;21.698;2023-11-19T05:21:16;100126.17;;;1.01;84.33
50310;BME280;36207;51.850;21.698;2023-11-19T05:23:43;100116.34;;;0.96;84.29
50310;BME280;36207;51.850;21.698;2023-11-19T05:26:09;100119.86;;;0.94;84.50
50310;BME280;36207;51.850;21.698;2023-11-19T05:28:38;100122.94;;;0.87;84.47
50310;BME280;36207;51.850;21.698;2023-11-19T05:31:05;100118.55;;;0.83;84.47
50310;BME280;36207;51.850;21.698;2023-11-19T05:33:31;100116.36;;;0.79;84.48
50310;BME280;36207;51.850;21.698;2023-11-19T05:35:57;100109.98;;;0.78;84.69
50310;BME280;36207;51.850;21.698;2023-11-19T05:38:24;100101.79;;;0.75;84.64
50310;BME280;36207;51.850;21.698;2023-11-19T05:40:49;100101.60;;;0.73;84.76
50310;BME280;36207;51.850;21.698;2023-11-19T05:43:15;100107.30;;;0.72;84.90
50310;BME280;36207;51.850;21.698;2023-11-19T05:45:42;100110.12;;;0.69;84.91
50310;BME280;36207;51.850;21.698;2023-11-19T05:48:09;100113.98;;;0.71;85.18
50310;BME280;36207;51.850;21.698;2023-11-19T05:50:35;100118.61;;;0.73;85.12
50310;BME280;36207;51.850;21.698;2023-11-19T05:53:01;100128.30;;;0.72;85.08
50310;BME280;36207;51.850;21.698;2023-11-19T05:55:27;100134.70;;;0.73;85.21
50310;BME280;36207;51.850;21.698;2023-11-19T05:57:54;100132.25;;;0.73;85.33
50310;BME280;36207;51.850;21.698;2023-11-19T06:00:20;100134.60;;;0.74;85.12
50310;BME280;36207;51.850;21.698;2023-11-19T06:02:45;100129.57;;;0.78;85.24
50310;BME280;36207;51.850;21.698;2023-11-19T06:05:11;100126.23;;;0.76;85.06
50310;BME280;36207;51.850;21.698;2023-11-19T06:07:37;100126.58;;;0.79;85.08
50310;BME280;36207;51.850;21.698;2023-11-19T06:10:05;100123.38;;;0.74;85.09
50310;BME280;36207;51.850;21.698;2023-11-19T06:12:33;100120.81;;;0.69;85.16
50310;BME280;36207;51.850;21.698;2023-11-19T06:15:05;100120.17;;;0.63;85.12
50310;BME280;36207;51.850;21.698;2023-11-19T06:17:31;100120.61;;;0.62;85.17
50310;BME280;36207;51.850;21.698;2023-11-19T06:19:57;100118.52;;;0.57;84.92
50310;BME280;36207;51.850;21.698;2023-11-19T06:22:23;100119.41;;;0.59;85.28
50310;BME280;36207;51.850;21.698;2023-11-19T06:24:49;100117.25;;;0.58;85.03
50310;BME280;36207;51.850;21.698;2023-11-19T06:27:15;100114.21;;;0.56;85.02
50310;BME280;36207;51.850;21.698;2023-11-19T06:29:41;100106.79;;;0.55;85.17
50310;BME280;36207;51.850;21.698;2023-11-19T06:32:07;100104.20;;;0.59;85.12
50310;BME280;36207;51.850;21.698;2023-11-19T06:34:34;100106.09;;;0.62;85.23
50310;BME280;36207;51.850;21.698;2023-11-19T06:37:00;100107.69;;;0.59;85.19
50310;BME280;36207;51.850;21.698;2023-11-19T06:39:26;100110.44;;;0.55;85.11
50310;BME280;36207;51.850;21.698;2023-11-19T06:41:52;100111.23;;;0.54;85.19
50310;BME280;36207;51.850;21.698;2023-11-19T06:44:18;100105.65;;;0.56;85.20
50310;BME280;36207;51.850;21.698;2023-11-19T06:46:44;100100.61;;;0.60;85.25
50310;BME280;36207;51.850;21.698;2023-11-19T06:49:10;100097.88;;;0.64;85.34
50310;BME280;36207;51.850;21.698;2023-11-19T06:51:41;100092.77;;;0.62;85.03
50310;BME280;36207;51.850;21.698;2023-11-19T06:54:07;100092.10;;;0.62;85.15
50310;BME280;36207;51.850;21.698;2023-11-19T06:56:33;100094.21;;;0.63;85.12
50310;BME280;36207;51.850;21.698;2023-11-19T06:58:59;100089.89;;;0.68;85.17
50310;BME280;36207;51.850;21.698;2023-11-19T07:01:25;100086.11;;;0.67;85.24
50310;BME280;36207;51.850;21.698;2023-11-19T07:03:51;100084.77;;;0.61;85.09
50310;BME280;36207;51.850;21.698;2023-11-19T07:06:17;100078.69;;;0.63;85.25
50310;BME280;36207;51.850;21.698;2023-11-19T07:08:44;100075.30;;;0.64;85.21
50310;BME280;36207;51.850;21.698;2023-11-19T07:11:13;100071.10;;;0.66;85.33
50310;BME280;36207;51.850;21.698;2023-11-19T07:13:42;100071.73;;;0.64;85.33
50310;BME280;36207;51.850;21.698;2023-11-19T07:16:09;100069.93;;;0.58;85.30
50310;BME280;36207;51.850;21.698;2023-11-19T07:18:37;100063.84;;;0.55;85.24
50310;BME280;36207;51.850;21.698;2023-11-19T07:21:04;100060.45;;;0.56;85.54
50310;BME280;36207;51.850;21.698;2023-11-19T07:23:30;100061.65;;;0.59;85.61
50310;BME280;36207;51.850;21.698;2023-11-19T07:25:56;100053.83;;;0.58;85.48
50310;BME280;36207;51.850;21.698;2023-11-19T07:28:22;100052.36;;;0.56;85.65
50310;BME280;36207;51.850;21.698;2023-11-19T07:30:48;100048.54;;;0.58;85.64
50310;BME280;36207;51.850;21.698;2023-11-19T07:33:15;100037.90;;;0.53;86.00
50310;BME280;36207;51.850;21.698;2023-11-19T07:35:42;100037.15;;;0.49;85.69
50310;BME280;36207;51.850;21.698;2023-11-19T07:38:09;100036.35;;;0.50;85.94
50310;BME280;36207;51.850;21.698;2023-11-19T07:40:35;100039.30;;;0.51;86.12
50310;BME280;36207;51.850;21.698;2023-11-19T07:43:01;100035.16;;;0.52;85.93
50310;BME280;36207;51.850;21.698;2023-11-19T07:45:27;100028.74;;;0.56;85.92
50310;BME280;36207;51.850;21.698;2023-11-19T07:47:53;100031.12;;;0.60;85.98
50310;BME280;36207;51.850;21.698;2023-11-19T07:50:20;100030.94;;;0.59;85.80
50310;BME280;36207;51.850;21.698;2023-11-19T07:52:46;100031.54;;;0.61;85.89
50310;BME280;36207;51.850;21.698;2023-11-19T07:55:12;100031.28;;;0.64;85.85
50310;BME280;36207;51.850;21.698;2023-11-19T07:57:38;100027.52;;;0.63;85.89
50310;BME280;36207;51.850;21.698;2023-11-19T08:00:05;100025.98;;;0.60;85.86
50310;BME280;36207;51.850;21.698;2023-11-19T08:02:31;100022.02;;;0.57;85.76
50310;BME280;36207;51.850;21.698;2023-11-19T08:04:57;100017.77;;;0.55;85.84
50310;BME280;36207;51.850;21.698;2023-11-19T08:07:23;100013.73;;;0.55;85.90
50310;BME280;36207;51.850;21.698;2023-11-19T08:09:49;100012.34;;;0.55;85.81
50310;BME280;36207;51.850;21.698;2023-11-19T08:12:15;100014.27;;;0.53;85.93
50310;BME280;36207;51.850;21.698;2023-11-19T08:14:42;100006.76;;;0.50;85.88
50310;BME280;36207;51.850;21.698;2023-11-19T08:17:09;100003.49;;;0.52;85.90
50310;BME280;36207;51.850;21.698;2023-11-19T08:19:36;100002.36;;;0.53;85.95
50310;BME280;36207;51.850;21.698;2023-11-19T08:22:02;99997.71;;;0.54;86.01
50310;BME280;36207;51.850;21.698;2023-11-19T08:24:28;99994.44;;;0.53;86.06
50310;BME280;36207;51.850;21.698;2023-11-19T08:26:54;99992.96;;;0.54;86.07
50310;BME280;36207;51.850;21.698;2023-11-19T08:29:19;99991.02;;;0.52;86.19
50310;BME280;36207;51.850;21.698;2023-11-19T08:31:47;99986.74;;;0.48;86.35
50310;BME280;36207;51.850;21.698;2023-11-19T08:34:13;99983.59;;;0.48;86.21
50310;BME280;36207;51.850;21.698;2023-11-19T08:36:39;99983.77;;;0.53;86.24
50310;BME280;36207;51.850;21.698;2023-11-19T08:39:05;99980.28;;;0.55;86.39
50310;BME280;36207;51.850;21.698;2023-11-19T08:41:30;99974.88;;;0.50;86.24
50310;BME280;36207;51.850;21.698;2023-11-19T08:43:56;99977.54;;;0.50;86.31
50310;BME280;36207;51.850;21.698;2023-11-19T08:46:22;99974.98;;;0.51;86.34
50310;BME280;36207;51.850;21.698;2023-11-19T08:48:48;99975.43;;;0.54;86.43
50310;BME280;36207;51.850;21.698;2023-11-19T08:51:14;99972.17;;;0.58;86.29
50310;BME280;36207;51.850;21.698;2023-11-19T08:53:40;99971.68;;;0.65;86.35
50310;BME280;36207;51.850;21.698;2023-11-19T08:56:06;99963.00;;;0.71;86.20
50310;BME280;36207;51.850;21.698;2023-11-19T08:58:32;99959.48;;;0.75;86.22
50310;BME280;36207;51.850;21.698;2023-11-19T09:00:58;99954.31;;;0.79;86.11
50310;BME280;36207;51.850;21.698;2023-11-19T09:03:24;99949.70;;;0.82;86.10
50310;BME280;36207;51.850;21.698;2023-11-19T09:05:52;99945.52;;;0.83;86.13
50310;BME280;36207;51.850;21.698;2023-11-19T09:08:18;99941.70;;;0.81;85.81
50310;BME280;36207;51.850;21.698;2023-11-19T09:10:44;99933.81;;;0.78;85.92
50310;BME280;36207;51.850;21.698;2023-11-19T09:13:10;99930.95;;;0.73;86.10
50310;BME280;36207;51.850;21.698;2023-11-19T09:15:36;99924.50;;;0.72;86.09
50310;BME280;36207;51.850;21.698;2023-11-19T09:18:02;99921.77;;;0.73;86.23
50310;BME280;36207;51.850;21.698;2023-11-19T09:20:29;99918.70;;;0.75;86.39
50310;BME280;36207;51.850;21.698;2023-11-19T09:23:04;99909.88;;;0.71;86.25
50310;BME280;36207;51.850;21.698;2023-11-19T09:25:31;99903.35;;;0.71;86.25
50310;BME280;36207;51.850;21.698;2023-11-19T09:27:57;99900.17;;;0.76;86.60
50310;BME280;36207;51.850;21.698;2023-11-19T09:30:23;99896.69;;;0.74;86.39
50310;BME280;36207;51.850;21.698;2023-11-19T09:32:49;99902.71;;;0.73;86.60
50310;BME280;36207;51.850;21.698;2023-11-19T09:35:15;99901.83;;;0.73;86.60
50310;BME280;36207;51.850;21.698;2023-11-19T09:37:43;99897.08;;;0.73;86.65
50310;BME280;36207;51.850;21.698;2023-11-19T09:40:09;99893.83;;;0.72;86.63
50310;BME280;36207;51.850;21.698;2023-11-19T09:42:53;99888.61;;;0.74;86.56
50310;BME280;36207;51.850;21.698;2023-11-19T09:45:21;99884.09;;;0.78;86.56
50310;BME280;36207;51.850;21.698;2023-11-19T09:47:47;99880.67;;;0.77;86.58
50310;BME280;36207;51.850;21.698;2023-11-19T09:50:18;99882.73;;;0.77;86.50
50310;BME280;36207;51.850;21.698;2023-11-19T09:52:45;99880.96;;;0.78;86.32
50310;BME280;36207;51.850;21.698;2023-11-19T09:55:11;99876.45;;;0.79;86.20
50310;BME280;36207;51.850;21.698;2023-11-19T09:57:44;99871.31;;;0.80;86.30
50310;BME280;36207;51.850;21.698;2023-11-19T10:00:11;99861.06;;;0.77;86.37
50310;BME280;36207;51.850;21.698;2023-11-19T10:02:41;99852.09;;;0.75;86.24
50310;BME280;36207;51.850;21.698;2023-11-19T10:05:07;99844.55;;;0.77;86.39
50310;BME280;36207;51.850;21.698;2023-11-19T10:07:34;99842.42;;;0.80;86.43
50310;BME280;36207;51.850;21.698;2023-11-19T10:10:01;99835.56;;;0.82;86.41
50310;BME280;36207;51.850;21.698;2023-11-19T10:12:28;99830.02;;;0.85;86.30
50310;BME280;36207;51.850;21.698;2023-11-19T10:14:56;99827.67;;;0.87;86.31
50310;BME280;36207;51.850;21.698;2023-11-19T10:17:27;99824.16;;;0.87;86.19
50310;BME280;36207;51.850;21.698;2023-11-19T10:19:55;99818.47;;;0.88;86.32
50310;BME280;36207;51.850;21.698;2023-11-19T10:22:23;99811.81;;;0.90;86.26
50310;BME280;36207;51.850;21.698;2023-11-19T10:24:50;99802.09;;;0.86;86.11
50310;BME280;36207;51.850;21.698;2023-11-19T10:27:17;99801.14;;;0.87;86.24
50310;BME280;36207;51.850;21.698;2023-11-19T10:29:47;99797.95;;;0.90;86.10
50310;BME280;36207;51.850;21.698;2023-11-19T10:32:14;99794.95;;;0.88;85.60
50310;BME280;36207;51.850;21.698;2023-11-19T10:34:43;99786.95;;;0.85;85.51
50310;BME280;36207;51.850;21.698;2023-11-19T10:37:27;99783.15;;;0.82;85.48
50310;BME280;36207;51.850;21.698;2023-11-19T10:39:54;99780.58;;;0.77;85.59
50310;BME280;36207;51.850;21.698;2023-11-19T10:42:21;99781.04;;;0.76;85.64
50310;BME280;36207;51.850;21.698;2023-11-19T10:44:47;99779.59;;;0.78;85.71
50310;BME280;36207;51.850;21.698;2023-11-19T10:47:14;99780.95;;;0.81;85.71
50310;BME280;36207;51.850;21.698;2023-11-19T10:49:43;99777.08;;;0.86;85.80
50310;BME280;36207;51.850;21.698;2023-11-19T10:52:09;99778.72;;;0.92;85.72
50310;BME280;36207;51.850;21.698;2023-11-19T10:54:35;99774.34;;;0.94;85.63
50310;BME280;36207;51.850;21.698;2023-11-19T10:57:02;99765.51;;;0.88;85.30
50310;BME280;36207;51.850;21.698;2023-11-19T10:59:30;99767.00;;;0.92;85.75
50310;BME280;36207;51.850;21.698;2023-11-19T11:02:00;99764.13;;;0.99;85.85
50310;BME280;36207;51.850;21.698;2023-11-19T11:04:30;99759.63;;;1.02;85.69
50310;BME280;36207;51.850;21.698;2023-11-19T11:07:00;99754.20;;;1.05;85.78
50310;BME280;36207;51.850;21.698;2023-11-19T11:09:27;99752.45;;;1.04;85.30
50310;BME280;36207;51.850;21.698;2023-11-19T11:11:55;99745.64;;;1.02;85.46
50310;BME280;36207;51.850;21.698;2023-11-19T11:14:24;99742.36;;;1.06;85.71
50310;BME280;36207;51.850;21.698;2023-11-19T11:16:51;99737.00;;;1.07;85.41
50310;BME280;36207;51.850;21.698;2023-11-19T11:19:19;99727.23;;;1.02;85.28
50310;BME280;36207;51.850;21.698;2023-11-19T11:21:49;99718.85;;;1.01;85.44
50310;BME280;36207;51.850;21.698;2023-11-19T11:30:29;99703.73;;;1.00;85.75
50310;BME280;36207;51.850;21.698;2023-11-19T11:36:19;99695.77;;;1.03;85.76
50310;BME280;36207;51.850;21.698;2023-11-19T11:38:50;99696.97;;;1.03;85.77
50310;BME280;36207;51.850;21.698;2023-11-19T11:41:18;99692.77;;;1.06;85.89
50310;BME280;36207;51.850;21.698;2023-11-19T11:43:52;99688.81;;;1.07;85.84
50310;BME280;36207;51.850;21.698;2023-11-19T11:49:06;99681.04;;;1.01;85.84
50310;BME280;36207;51.850;21.698;2023-11-19T11:57:08;99667.79;;;1.13;86.06
50310;BME280;36207;51.850;21.698;2023-11-19T12:02:12;99655.36;;;1.15;85.88
50310;BME280;36207;51.850;21.698;2023-11-19T12:04:42;99655.03;;;1.14;85.78
50310;BME280;36207;51.850;21.698;2023-11-19T12:07:13;99651.27;;;1.09;85.86
50310;BME280;36207;51.850;21.698;2023-11-19T12:10:07;99647.19;;;1.05;85.89
50310;BME280;36207;51.850;21.698;2023-11-19T12:12:42;99637.38;;;1.03;86.03
50310;BME280;36207;51.850;21.698;2023-11-19T12:15:08;99630.84;;;1.00;85.98
50310;BME280;36207;51.850;21.698;2023-11-19T12:20:08;99616.55;;;0.97;86.10
50310;BME280;36207;51.850;21.698;2023-11-19T12:22:38;99614.50;;;0.98;86.30
50310;BME280;36207;51.850;21.698;2023-11-19T12:25:06;99608.20;;;0.96;86.15
50310;BME280;36207;51.850;21.698;2023-11-19T12:27:33;99597.36;;;0.93;86.29
50310;BME280;36207;51.850;21.698;2023-11-19T12:30:03;99595.27;;;0.91;86.44
50310;BME280;36207;51.850;21.698;2023-11-19T12:32:42;99596.84;;;0.89;86.31
50310;BME280;36207;51.850;21.698;2023-11-19T12:35:09;99594.27;;;0.90;86.19
50310;BME280;36207;51.850;21.698;2023-11-19T12:37:46;99593.38;;;0.93;86.26
50310;BME280;36207;51.850;21.698;2023-11-19T12:42:38;99588.89;;;0.96;86.24
50310;BME280;36207;51.850;21.698;2023-11-19T12:45:05;99588.44;;;0.99;86.15
50310;BME280;36207;51.850;21.698;2023-11-19T12:47:31;99584.96;;;1.01;86.10
50310;BME280;36207;51.850;21.698;2023-11-19T12:49:58;99578.86;;;1.01;86.10
50310;BME280;36207;51.850;21.698;2023-11-19T12:52:23;99575.50;;;1.01;86.15
50310;BME280;36207;51.850;21.698;2023-11-19T12:54:50;99574.02;;;1.00;86.25
50310;BME280;36207;51.850;21.698;2023-11-19T12:57:17;99568.92;;;0.96;86.53
50310;BME280;36207;51.850;21.698;2023-11-19T12:59:55;99562.89;;;0.93;86.33
50310;BME280;36207;51.850;21.698;2023-11-19T13:02:44;99557.67;;;0.92;86.41
50310;BME280;36207;51.850;21.698;2023-11-19T13:05:25;99551.89;;;0.92;86.53
50310;BME280;36207;51.850;21.698;2023-11-19T13:10:27;99545.95;;;0.90;86.65
50310;BME280;36207;51.850;21.698;2023-11-19T13:13:19;99541.45;;;0.91;86.84
50310;BME280;36207;51.850;21.698;2023-11-19T13:15:46;99536.79;;;0.90;86.65
50310;BME280;36207;51.850;21.698;2023-11-19T13:18:12;99531.16;;;0.93;86.76
50310;BME280;36207;51.850;21.698;2023-11-19T13:20:40;99531.34;;;0.93;86.84
50310;BME280;36207;51.850;21.698;2023-11-19T13:23:06;99527.16;;;0.88;86.77